Detall de PIREP

Printer-friendly versionPDF version

[2012/12/08 15:47:00]
Flight IATA:CT1005
Pilot Number:042
Company ICAO:CAT
Aircraft Type:MD11/E
PAX:98
Aircraft Registration:PAX
Departing Airport: LJLJ
Destination Airport: EVRA
Alternate Airport:EYSA
Online: VATSIM
Route:VALLU UL156 ASKOD UM985 DBV UL999 SUPAK L999 OBOSO M857 GUNTA
Flight Level:F370
No Slew and time accel
No pause
Crash detect
Detect pilot in Cockpit between each 30 and 45 minutes
15:47 Zero fuel Weight: 377795 Lbs, Fuel Weight: 94085 Lbs
15:47 VATSIM:LJLJ 081530Z 28001KT 3000 -SN BR SCT013 BKN033 OVC050 M03/M04 Q1013 RESN R30/29//95 NOSIG
15:47 VATSIM:EVRA 081520Z 15003KT 6000 NSC M11/M11 Q1017 R18/490240 TEMPO BKN003
15:47 VOICE CATALONIAN/EU TOUR
15:49 Parking Brakes off
16:07 Take-off
16:07 Take off Weight: 465826 Lbs
16:07 Wind: 279º @ 001 Knots Heading: 306º
16:07 POS N46º 13´ 35´´ E014º 27´ 06´´
16:07 Gear Up: 179 Knots
16:07 Flaps:5 at 179 Knots
16:07 Flaps:4 at 164 Knots
16:07 Flaps:3 at 163 Knots
16:07 Flaps:2 at 163 Knots
16:07 Flaps:1 at 165 Knots
16:07 Flaps:0 at 181 Knots
16:22 Wind:315º@025 Knots Heading: 012º Ground Speed: 445 Knots Altitude 30659 ft
16:27 TOC
16:27 Fuel Weight: 77868 Lb
16:37 Wind:290º@021 Knots Heading: 068º Ground Speed: 459 Knots Altitude 37129 ft
16:52 Wind:264º@013 Knots Heading: 055º Ground Speed: 450 Knots Altitude 37099 ft
17:07 Wind:251º@022 Knots Heading: 043º Ground Speed: 454 Knots Altitude 37191 ft
17:22 Wind:209º@022 Knots Heading: 011º Ground Speed: 456 Knots Altitude 37188 ft
17:31 TOD
17:31 Fuel Weight: 61859 Lb
17:37 Wind:187º@016 Knots Heading: 022º Ground Speed: 393 Knots Altitude 28513 ft
17:52 Wind:197º@032 Knots Heading: 011º Ground Speed: 448 Knots Altitude 25121 ft
18:03 Flaps:1 at 236 Knots
18:04 Flaps:2 at 229 Knots
18:04 Flaps:3 at 223 Knots
18:04 Flaps:4 at 221 Knots
18:06 Flaps:5 at 216 Knots
18:07 Wind:233º@011 Knots Heading: 004º Ground Speed: 230 Knots Altitude 6535 ft
18:10 Flaps:6 at 211 Knots
18:10 Flaps:5 at 211 Knots
18:10 Flaps:6 at 212 Knots
18:10 Flaps:5 at 213 Knots
18:10 Flaps:6 at 212 Knots
18:12 Gear Down: 172 Knots
18:12 Flaps:7 at 172 Knots
18:12 Flaps:8 at 172 Knots
18:12 Flaps:7 at 172 Knots
18:12 Flaps:8 at 173 Knots
18:14 Flaps:7 at 176 Knots
18:14 Flaps:6 at 190 Knots
18:14 Flaps:5 at 212 Knots
18:15 Flaps:6 at 211 Knots
18:15 Flaps:7 at 187 Knots
18:15 Flaps:8 at 169 Knots
18:15 TouchDown:Rate -273 ft/min Speed: 153 Knots
18:15 VATSIM:EVRA 081750Z 16004KT 6000 BR BKN003 M09/M09 Q1017 R18/490240 NOSIG
18:15 Land
18:15 Wind:155º@002 Knots
18:15 Heading: 194º
18:15 Flight Duration: 02:08
18:15 Landing Weight: 429218 Lbs
18:15 POS N56º 54´ 03´´ E023º 57´ 48´´
18:15 Parking brakes on
18:15 Block to Block Duration: 02:26
18:15 Final Fuel: 51413 Lbls
18:15 Spent Fuel: 42672 Lbls
18:15 Flight Length: 748 NM
18:15 TOD Land Length: 244 NM

Exportar CSV

Powered by Drupal - Modified by Danger4k